sensor_id;sensor_type;location;lat;lon;timestamp;temperature;humidity
33655;DHT22;19997;51.274;22.506;2023-04-01T00:01:31;11.20;99.90
33655;DHT22;19997;51.274;22.506;2023-04-01T00:03:58;11.20;99.90
33655;DHT22;19997;51.274;22.506;2023-04-01T00:06:29;11.20;99.90
33655;DHT22;19997;51.274;22.506;2023-04-01T00:08:56;11.20;99.90
33655;DHT22;19997;51.274;22.506;2023-04-01T00:11:23;11.10;99.90
33655;DHT22;19997;51.274;22.506;2023-04-01T00:13:53;11.10;99.90
33655;DHT22;19997;51.274;22.506;2023-04-01T00:16:20;11.00;99.90
33655;DHT22;19997;51.274;22.506;2023-04-01T00:18:48;10.90;99.90
33655;DHT22;19997;51.274;22.506;2023-04-01T00:21:15;10.80;99.90
33655;DHT22;19997;51.274;22.506;2023-04-01T00:23:44;10.70;99.90
33655;DHT22;19997;51.274;22.506;2023-04-01T00:26:11;10.60;99.90
33655;DHT22;19997;51.274;22.506;2023-04-01T00:28:41;10.50;99.90
33655;DHT22;19997;51.274;22.506;2023-04-01T00:31:09;10.40;99.90
33655;DHT22;19997;51.274;22.506;2023-04-01T00:33:37;10.40;99.90
33655;DHT22;19997;51.274;22.506;2023-04-01T00:36:09;10.30;99.90
33655;DHT22;19997;51.274;22.506;2023-04-01T00:38:36;10.20;99.90
33655;DHT22;19997;51.274;22.506;2023-04-01T00:41:06;10.10;99.90
33655;DHT22;19997;51.274;22.506;2023-04-01T00:43:33;10.00;99.90
33655;DHT22;19997;51.274;22.506;2023-04-01T00:46:01;9.90;99.90
33655;DHT22;19997;51.274;22.506;2023-04-01T00:48:31;9.90;99.90
33655;DHT22;19997;51.274;22.506;2023-04-01T00:51:02;9.90;99.90
33655;DHT22;19997;51.274;22.506;2023-04-01T00:53:33;9.90;99.90
33655;DHT22;19997;51.274;22.506;2023-04-01T00:56:05;10.00;99.90
33655;DHT22;19997;51.274;22.506;2023-04-01T00:58:36;10.00;99.90
33655;DHT22;19997;51.274;22.506;2023-04-01T01:01:06;10.00;99.90
33655;DHT22;19997;51.274;22.506;2023-04-01T01:03:35;10.00;99.90
33655;DHT22;19997;51.274;22.506;2023-04-01T01:06:23;10.00;99.90
33655;DHT22;19997;51.274;22.506;2023-04-01T01:09:09;10.10;99.90
33655;DHT22;19997;51.274;22.506;2023-04-01T01:11:42;10.10;99.90
33655;DHT22;19997;51.274;22.506;2023-04-01T01:14:19;10.20;99.90
33655;DHT22;19997;51.274;22.506;2023-04-01T01:16:54;10.20;99.90
33655;DHT22;19997;51.274;22.506;2023-04-01T01:19:52;10.30;99.90
33655;DHT22;19997;51.274;22.506;2023-04-01T01:22:36;10.20;99.90
33655;DHT22;19997;51.274;22.506;2023-04-01T01:25:18;10.20;99.90
33655;DHT22;19997;51.274;22.506;2023-04-01T01:27:57;10.20;99.90
33655;DHT22;19997;51.274;22.506;2023-04-01T01:30:39;10.20;99.90
33655;DHT22;19997;51.274;22.506;2023-04-01T01:33:33;10.20;99.90
33655;DHT22;19997;51.274;22.506;2023-04-01T01:36:06;10.20;99.90
33655;DHT22;19997;51.274;22.506;2023-04-01T01:38:36;10.20;99.90
33655;DHT22;19997;51.274;22.506;2023-04-01T01:41:05;10.20;99.90
33655;DHT22;19997;51.274;22.506;2023-04-01T01:43:36;10.20;99.90
33655;DHT22;19997;51.274;22.506;2023-04-01T01:46:09;10.10;99.90
33655;DHT22;19997;51.274;22.506;2023-04-01T01:48:38;10.10;99.90
33655;DHT22;19997;51.274;22.506;2023-04-01T01:51:08;10.10;99.90
33655;DHT22;19997;51.274;22.506;2023-04-01T01:53:36;10.10;99.90
33655;DHT22;19997;51.274;22.506;2023-04-01T01:56:04;10.20;99.90
33655;DHT22;19997;51.274;22.506;2023-04-01T01:58:39;10.20;99.90
33655;DHT22;19997;51.274;22.506;2023-04-01T02:01:13;10.20;99.90
33655;DHT22;19997;51.274;22.506;2023-04-01T02:03:43;10.20;99.90
33655;DHT22;19997;51.274;22.506;2023-04-01T02:06:16;10.20;99.90
33655;DHT22;19997;51.274;22.506;2023-04-01T02:08:45;10.30;99.90
33655;DHT22;19997;51.274;22.506;2023-04-01T02:11:16;10.30;99.90
33655;DHT22;19997;51.274;22.506;2023-04-01T02:13:52;10.30;99.90
33655;DHT22;19997;51.274;22.506;2023-04-01T02:16:23;10.30;99.90
33655;DHT22;19997;51.274;22.506;2023-04-01T02:18:54;10.30;99.90
33655;DHT22;19997;51.274;22.506;2023-04-01T02:21:26;10.40;99.90
33655;DHT22;19997;51.274;22.506;2023-04-01T02:23:54;10.40;99.90
33655;DHT22;19997;51.274;22.506;2023-04-01T02:26:24;10.40;99.90
33655;DHT22;19997;51.274;22.506;2023-04-01T02:28:53;10.40;99.90
33655;DHT22;19997;51.274;22.506;2023-04-01T02:31:21;10.40;99.90
33655;DHT22;19997;51.274;22.506;2023-04-01T02:33:49;10.40;99.90
33655;DHT22;19997;51.274;22.506;2023-04-01T02:36:17;10.40;99.90
33655;DHT22;19997;51.274;22.506;2023-04-01T02:38:46;10.30;99.90
33655;DHT22;19997;51.274;22.506;2023-04-01T02:41:14;10.30;99.90
33655;DHT22;19997;51.274;22.506;2023-04-01T02:43:41;10.30;99.90
33655;DHT22;19997;51.274;22.506;2023-04-01T02:46:08;10.30;99.90
33655;DHT22;19997;51.274;22.506;2023-04-01T02:48:35;10.30;99.90
33655;DHT22;19997;51.274;22.506;2023-04-01T02:51:03;10.30;99.90
33655;DHT22;19997;51.274;22.506;2023-04-01T02:53:30;10.30;99.90
33655;DHT22;19997;51.274;22.506;2023-04-01T02:55:58;10.30;99.90
33655;DHT22;19997;51.274;22.506;2023-04-01T02:58:25;10.30;99.90
33655;DHT22;19997;51.274;22.506;2023-04-01T03:00:53;10.30;99.90
33655;DHT22;19997;51.274;22.506;2023-04-01T03:03:20;10.30;99.90
33655;DHT22;19997;51.274;22.506;2023-04-01T03:05:47;10.20;99.90
33655;DHT22;19997;51.274;22.506;2023-04-01T03:08:14;10.20;99.90
33655;DHT22;19997;51.274;22.506;2023-04-01T03:10:41;10.20;99.90
33655;DHT22;19997;51.274;22.506;2023-04-01T03:13:09;10.20;99.90
33655;DHT22;19997;51.274;22.506;2023-04-01T03:15:37;10.10;99.90
33655;DHT22;19997;51.274;22.506;2023-04-01T03:18:04;10.20;99.90
33655;DHT22;19997;51.274;22.506;2023-04-01T03:20:31;10.10;99.90
33655;DHT22;19997;51.274;22.506;2023-04-01T03:22:58;10.10;99.90
33655;DHT22;19997;51.274;22.506;2023-04-01T03:25:26;10.10;99.90
33655;DHT22;19997;51.274;22.506;2023-04-01T03:27:54;10.10;99.90
33655;DHT22;19997;51.274;22.506;2023-04-01T03:30:22;10.00;99.90
33655;DHT22;19997;51.274;22.506;2023-04-01T03:32:50;10.00;99.90
33655;DHT22;19997;51.274;22.506;2023-04-01T03:35:17;10.00;99.90
33655;DHT22;19997;51.274;22.506;2023-04-01T03:37:45;10.00;99.90
33655;DHT22;19997;51.274;22.506;2023-04-01T03:40:12;10.00;99.90
33655;DHT22;19997;51.274;22.506;2023-04-01T03:42:39;9.90;99.90
33655;DHT22;19997;51.274;22.506;2023-04-01T03:45:07;9.90;99.90
33655;DHT22;19997;51.274;22.506;2023-04-01T03:47:36;9.80;99.90
33655;DHT22;19997;51.274;22.506;2023-04-01T03:50:03;9.90;99.90
33655;DHT22;19997;51.274;22.506;2023-04-01T03:52:31;9.80;99.90
33655;DHT22;19997;51.274;22.506;2023-04-01T03:54:58;9.80;99.90
33655;DHT22;19997;51.274;22.506;2023-04-01T03:57:25;9.80;99.90
33655;DHT22;19997;51.274;22.506;2023-04-01T03:59:56;9.70;99.90
33655;DHT22;19997;51.274;22.506;2023-04-01T04:02:23;9.80;99.90
33655;DHT22;19997;51.274;22.506;2023-04-01T04:04:51;9.70;99.90
33655;DHT22;19997;51.274;22.506;2023-04-01T04:07:19;9.80;99.90
33655;DHT22;19997;51.274;22.506;2023-04-01T04:10:02;9.80;99.90
33655;DHT22;19997;51.274;22.506;2023-04-01T04:12:29;9.80;99.90
33655;DHT22;19997;51.274;22.506;2023-04-01T04:14:56;9.80;99.90
33655;DHT22;19997;51.274;22.506;2023-04-01T04:17:23;9.80;99.90
33655;DHT22;19997;51.274;22.506;2023-04-01T04:19:52;9.80;99.90
33655;DHT22;19997;51.274;22.506;2023-04-01T04:22:20;9.80;99.90
33655;DHT22;19997;51.274;22.506;2023-04-01T04:24:48;9.80;99.90
33655;DHT22;19997;51.274;22.506;2023-04-01T04:27:15;9.80;99.90
33655;DHT22;19997;51.274;22.506;2023-04-01T04:29:52;9.80;99.90
33655;DHT22;19997;51.274;22.506;2023-04-01T04:32:19;9.70;99.90
33655;DHT22;19997;51.274;22.506;2023-04-01T04:34:46;9.80;99.90
33655;DHT22;19997;51.274;22.506;2023-04-01T04:37:14;9.80;99.90
33655;DHT22;19997;51.274;22.506;2023-04-01T04:39:41;9.80;99.90
33655;DHT22;19997;51.274;22.506;2023-04-01T04:42:09;9.80;99.90
33655;DHT22;19997;51.274;22.506;2023-04-01T04:44:36;9.80;99.90
33655;DHT22;19997;51.274;22.506;2023-04-01T04:47:03;9.90;99.90
33655;DHT22;19997;51.274;22.506;2023-04-01T04:49:31;9.90;99.90
33655;DHT22;19997;51.274;22.506;2023-04-01T04:52:00;9.90;99.90
33655;DHT22;19997;51.274;22.506;2023-04-01T04:54:29;9.90;99.90
33655;DHT22;19997;51.274;22.506;2023-04-01T04:56:58;10.00;99.90
33655;DHT22;19997;51.274;22.506;2023-04-01T04:59:29;9.90;99.90
33655;DHT22;19997;51.274;22.506;2023-04-01T05:02:02;10.00;99.90
33655;DHT22;19997;51.274;22.506;2023-04-01T05:04:29;10.00;99.90
33655;DHT22;19997;51.274;22.506;2023-04-01T05:06:56;10.00;99.90
33655;DHT22;19997;51.274;22.506;2023-04-01T05:09:23;10.10;99.90
33655;DHT22;19997;51.274;22.506;2023-04-01T05:11:52;10.20;99.90
33655;DHT22;19997;51.274;22.506;2023-04-01T05:14:20;10.20;99.90
33655;DHT22;19997;51.274;22.506;2023-04-01T05:17:09;10.20;99.90
33655;DHT22;19997;51.274;22.506;2023-04-01T05:19:37;10.30;99.90
33655;DHT22;19997;51.274;22.506;2023-04-01T05:22:04;10.30;99.90
33655;DHT22;19997;51.274;22.506;2023-04-01T05:24:32;10.40;99.90
33655;DHT22;19997;51.274;22.506;2023-04-01T05:27:01;10.40;99.90
33655;DHT22;19997;51.274;22.506;2023-04-01T05:29:31;10.40;99.90
33655;DHT22;19997;51.274;22.506;2023-04-01T05:32:04;10.50;99.90
33655;DHT22;19997;51.274;22.506;2023-04-01T05:34:32;10.60;99.90
33655;DHT22;19997;51.274;22.506;2023-04-01T05:36:59;10.70;99.90
33655;DHT22;19997;51.274;22.506;2023-04-01T05:39:26;10.70;99.90
33655;DHT22;19997;51.274;22.506;2023-04-01T05:41:54;10.70;99.90
33655;DHT22;19997;51.274;22.506;2023-04-01T05:44:22;10.80;99.90
33655;DHT22;19997;51.274;22.506;2023-04-01T05:47:02;10.80;99.90
33655;DHT22;19997;51.274;22.506;2023-04-01T05:49:30;10.80;99.90
33655;DHT22;19997;51.274;22.506;2023-04-01T05:51:57;10.80;99.90
33655;DHT22;19997;51.274;22.506;2023-04-01T05:54:25;10.90;99.90
33655;DHT22;19997;51.274;22.506;2023-04-01T05:56:52;10.90;99.90
33655;DHT22;19997;51.274;22.506;2023-04-01T05:59:21;11.00;99.90
33655;DHT22;19997;51.274;22.506;2023-04-01T06:01:48;11.00;99.90
33655;DHT22;19997;51.274;22.506;2023-04-01T06:04:17;11.10;99.90
33655;DHT22;19997;51.274;22.506;2023-04-01T06:06:45;11.10;99.90
33655;DHT22;19997;51.274;22.506;2023-04-01T06:09:15;11.10;99.90
33655;DHT22;19997;51.274;22.506;2023-04-01T06:12:16;11.20;99.90
33655;DHT22;19997;51.274;22.506;2023-04-01T06:15:07;11.30;99.90
33655;DHT22;19997;51.274;22.506;2023-04-01T06:18:10;11.30;99.90
33655;DHT22;19997;51.274;22.506;2023-04-01T06:20:46;11.20;99.90
33655;DHT22;19997;51.274;22.506;2023-04-01T06:23:41;11.10;99.90
33655;DHT22;19997;51.274;22.506;2023-04-01T06:26:26;11.00;99.90
33655;DHT22;19997;51.274;22.506;2023-04-01T06:35:41;10.80;99.90
33655;DHT22;19997;51.274;22.506;2023-04-01T06:38:32;10.60;99.90
33655;DHT22;19997;51.274;22.506;2023-04-01T06:41:21;10.60;99.90
33655;DHT22;19997;51.274;22.506;2023-04-01T06:43:57;10.50;99.90
33655;DHT22;19997;51.274;22.506;2023-04-01T06:46:57;10.60;99.90
33655;DHT22;19997;51.274;22.506;2023-04-01T06:49:48;10.50;99.90
33655;DHT22;19997;51.274;22.506;2023-04-01T06:52:51;10.70;99.90
33655;DHT22;19997;51.274;22.506;2023-04-01T06:55:41;10.80;99.90
33655;DHT22;19997;51.274;22.506;2023-04-01T06:58:41;10.90;99.90
33655;DHT22;19997;51.274;22.506;2023-04-01T07:01:14;11.00;99.90
33655;DHT22;19997;51.274;22.506;2023-04-01T07:03:47;11.20;99.90
33655;DHT22;19997;51.274;22.506;2023-04-01T07:06:23;11.40;99.90
33655;DHT22;19997;51.274;22.506;2023-04-01T07:08:58;11.50;99.90
33655;DHT22;19997;51.274;22.506;2023-04-01T07:11:36;11.60;99.90
33655;DHT22;19997;51.274;22.506;2023-04-01T07:14:41;11.70;99.90
33655;DHT22;19997;51.274;22.506;2023-04-01T07:17:14;11.70;99.90
33655;DHT22;19997;51.274;22.506;2023-04-01T07:19:45;11.60;99.90
33655;DHT22;19997;51.274;22.506;2023-04-01T07:22:24;11.60;99.90
33655;DHT22;19997;51.274;22.506;2023-04-01T07:25:29;11.70;99.90
33655;DHT22;19997;51.274;22.506;2023-04-01T07:28:20;11.90;99.90
33655;DHT22;19997;51.274;22.506;2023-04-01T07:31:07;12.00;99.90
33655;DHT22;19997;51.274;22.506;2023-04-01T07:33:42;12.10;99.90
33655;DHT22;19997;51.274;22.506;2023-04-01T07:36:17;12.20;99.90
33655;DHT22;19997;51.274;22.506;2023-04-01T07:38:56;12.30;99.90
33655;DHT22;19997;51.274;22.506;2023-04-01T07:41:51;12.50;99.90
33655;DHT22;19997;51.274;22.506;2023-04-01T07:44:34;12.70;99.90
33655;DHT22;19997;51.274;22.506;2023-04-01T07:47:14;12.80;99.60
33655;DHT22;19997;51.274;22.506;2023-04-01T07:49:50;13.00;98.60
33655;DHT22;19997;51.274;22.506;2023-04-01T07:52:24;13.10;96.80
33655;DHT22;19997;51.274;22.506;2023-04-01T07:55:02;13.30;96.30
33655;DHT22;19997;51.274;22.506;2023-04-01T07:57:38;13.50;94.70
33655;DHT22;19997;51.274;22.506;2023-04-01T08:00:12;13.60;94.60
33655;DHT22;19997;51.274;22.506;2023-04-01T08:03:05;13.90;94.20
33655;DHT22;19997;51.274;22.506;2023-04-01T08:05:41;14.10;92.00
33655;DHT22;19997;51.274;22.506;2023-04-01T08:08:18;14.20;91.30
33655;DHT22;19997;51.274;22.506;2023-04-01T08:11:12;14.30;91.00
33655;DHT22;19997;51.274;22.506;2023-04-01T08:13:48;14.30;90.00
33655;DHT22;19997;51.274;22.506;2023-04-01T08:16:53;14.40;89.30
33655;DHT22;19997;51.274;22.506;2023-04-01T08:19:39;14.60;89.30
33655;DHT22;19997;51.274;22.506;2023-04-01T08:22:14;14.70;87.50
33655;DHT22;19997;51.274;22.506;2023-04-01T08:24:45;14.70;86.00
33655;DHT22;19997;51.274;22.506;2023-04-01T08:27:19;14.50;84.80
33655;DHT22;19997;51.274;22.506;2023-04-01T08:29:52;14.40;85.00
33655;DHT22;19997;51.274;22.506;2023-04-01T08:32:25;14.30;84.50
33655;DHT22;19997;51.274;22.506;2023-04-01T08:35:01;14.20;84.70
33655;DHT22;19997;51.274;22.506;2023-04-01T08:37:50;14.10;85.10
33655;DHT22;19997;51.274;22.506;2023-04-01T08:40:58;14.10;86.60
33655;DHT22;19997;51.274;22.506;2023-04-01T08:44:00;14.00;87.50
33655;DHT22;19997;51.274;22.506;2023-04-01T08:50:04;14.30;87.80
33655;DHT22;19997;51.274;22.506;2023-04-01T08:52:53;14.60;86.40
33655;DHT22;19997;51.274;22.506;2023-04-01T08:55:34;14.70;84.80
33655;DHT22;19997;51.274;22.506;2023-04-01T09:01:27;14.80;84.10
33655;DHT22;19997;51.274;22.506;2023-04-01T09:04:13;14.80;82.90
33655;DHT22;19997;51.274;22.506;2023-04-01T09:06:58;14.90;82.80
33655;DHT22;19997;51.274;22.506;2023-04-01T09:12:35;14.80;80.40
33655;DHT22;19997;51.274;22.506;2023-04-01T09:18:24;15.00;80.10
33655;DHT22;19997;51.274;22.506;2023-04-01T09:21:26;15.10;78.60
33655;DHT22;19997;51.274;22.506;2023-04-01T09:24:14;15.10;78.20
33655;DHT22;19997;51.274;22.506;2023-04-01T09:27:02;15.20;78.60
33655;DHT22;19997;51.274;22.506;2023-04-01T09:29:49;15.30;77.90
33655;DHT22;19997;51.274;22.506;2023-04-01T09:32:48;15.40;76.70
33655;DHT22;19997;51.274;22.506;2023-04-01T09:35:38;15.60;75.80
33655;DHT22;19997;51.274;22.506;2023-04-01T09:38:20;15.60;75.50
33655;DHT22;19997;51.274;22.506;2023-04-01T09:40:55;15.60;75.70
33655;DHT22;19997;51.274;22.506;2023-04-01T09:43:49;15.60;75.50
33655;DHT22;19997;51.274;22.506;2023-04-01T09:46:30;15.60;74.40
33655;DHT22;19997;51.274;22.506;2023-04-01T09:49:20;15.60;74.00
33655;DHT22;19997;51.274;22.506;2023-04-01T09:52:05;15.60;74.20
33655;DHT22;19997;51.274;22.506;2023-04-01T09:54:49;15.70;74.00
33655;DHT22;19997;51.274;22.506;2023-04-01T09:57:57;15.80;74.00
33655;DHT22;19997;51.274;22.506;2023-04-01T10:01:10;15.90;74.00
33655;DHT22;19997;51.274;22.506;2023-04-01T10:04:24;16.00;73.90
33655;DHT22;19997;51.274;22.506;2023-04-01T10:07:40;16.10;73.80
33655;DHT22;19997;51.274;22.506;2023-04-01T10:10:40;16.20;73.60
33655;DHT22;19997;51.274;22.506;2023-04-01T10:17:12;16.40;73.40
33655;DHT22;19997;51.274;22.506;2023-04-01T10:20:00;16.40;73.60
33655;DHT22;19997;51.274;22.506;2023-04-01T10:22:51;16.40;73.50
33655;DHT22;19997;51.274;22.506;2023-04-01T10:25:29;16.50;73.50
33655;DHT22;19997;51.274;22.506;2023-04-01T10:28:29;16.60;71.80
33655;DHT22;19997;51.274;22.506;2023-04-01T10:31:33;16.60;71.30
33655;DHT22;19997;51.274;22.506;2023-04-01T10:34:10;16.70;71.70
33655;DHT22;19997;51.274;22.506;2023-04-01T10:36:55;16.80;71.30
33655;DHT22;19997;51.274;22.506;2023-04-01T10:40:04;16.90;70.30
33655;DHT22;19997;51.274;22.506;2023-04-01T10:43:27;16.80;70.40
33655;DHT22;19997;51.274;22.506;2023-04-01T10:46:40;16.80;70.90
33655;DHT22;19997;51.274;22.506;2023-04-01T10:56:33;17.00;69.80
33655;DHT22;19997;51.274;22.506;2023-04-01T11:22:07;14.90;75.00
33655;DHT22;19997;51.274;22.506;2023-04-01T11:28:11;15.10;77.20
33655;DHT22;19997;51.274;22.506;2023-04-01T11:30:57;15.50;75.70
33655;DHT22;19997;51.274;22.506;2023-04-01T11:33:33;15.80;74.30
33655;DHT22;19997;51.274;22.506;2023-04-01T11:36:15;16.10;73.20
33655;DHT22;19997;51.274;22.506;2023-04-01T11:39:11;16.20;72.40
33655;DHT22;19997;51.274;22.506;2023-04-01T11:42:08;16.30;71.70
33655;DHT22;19997;51.274;22.506;2023-04-01T11:45:27;16.30;71.40
33655;DHT22;19997;51.274;22.506;2023-04-01T11:48:08;16.30;71.40
33655;DHT22;19997;51.274;22.506;2023-04-01T11:50:47;16.40;71.10
33655;DHT22;19997;51.274;22.506;2023-04-01T11:53:29;16.40;70.70
33655;DHT22;19997;51.274;22.506;2023-04-01T11:56:06;16.40;71.20
33655;DHT22;19997;51.274;22.506;2023-04-01T11:58:54;16.30;70.10
33655;DHT22;19997;51.274;22.506;2023-04-01T12:01:30;16.20;70.30
33655;DHT22;19997;51.274;22.506;2023-04-01T12:04:30;16.10;70.60
33655;DHT22;19997;51.274;22.506;2023-04-01T12:07:02;16.00;71.20
33655;DHT22;19997;51.274;22.506;2023-04-01T12:09:37;16.00;71.60
33655;DHT22;19997;51.274;22.506;2023-04-01T12:12:17;15.80;69.70
33655;DHT22;19997;51.274;22.506;2023-04-01T12:14:59;15.40;70.10
33655;DHT22;19997;51.274;22.506;2023-04-01T12:17:36;15.00;71.50
33655;DHT22;19997;51.274;22.506;2023-04-01T12:20:41;14.70;72.80
33655;DHT22;19997;51.274;22.506;2023-04-01T12:23:28;14.40;74.40
33655;DHT22;19997;51.274;22.506;2023-04-01T12:26:15;14.30;75.30
33655;DHT22;19997;51.274;22.506;2023-04-01T12:28:59;14.20;76.70
33655;DHT22;19997;51.274;22.506;2023-04-01T12:31:36;14.00;79.00
33655;DHT22;19997;51.274;22.506;2023-04-01T12:34:25;13.80;80.30
33655;DHT22;19997;51.274;22.506;2023-04-01T12:37:02;13.60;82.00
33655;DHT22;19997;51.274;22.506;2023-04-01T12:39:56;13.70;83.40
33655;DHT22;19997;51.274;22.506;2023-04-01T12:42:40;13.90;83.80
33655;DHT22;19997;51.274;22.506;2023-04-01T12:45:28;14.30;83.30
33655;DHT22;19997;51.274;22.506;2023-04-01T12:51:10;15.10;80.60
33655;DHT22;19997;51.274;22.506;2023-04-01T12:53:58;15.50;79.50
33655;DHT22;19997;51.274;22.506;2023-04-01T12:56:36;15.70;77.50
33655;DHT22;19997;51.274;22.506;2023-04-01T12:59:36;16.00;76.70
33655;DHT22;19997;51.274;22.506;2023-04-01T13:02:20;16.30;75.70
33655;DHT22;19997;51.274;22.506;2023-04-01T13:05:18;16.50;73.70
33655;DHT22;19997;51.274;22.506;2023-04-01T13:08:17;16.60;72.90
33655;DHT22;19997;51.274;22.506;2023-04-01T13:11:09;16.50;71.70
33655;DHT22;19997;51.274;22.506;2023-04-01T13:13:48;16.30;73.10
33655;DHT22;19997;51.274;22.506;2023-04-01T13:16:24;16.20;72.40
33655;DHT22;19997;51.274;22.506;2023-04-01T13:18:59;16.10;72.60
33655;DHT22;19997;51.274;22.506;2023-04-01T13:21:38;16.00;72.20
33655;DHT22;19997;51.274;22.506;2023-04-01T13:24:24;15.90;72.10
33655;DHT22;19997;51.274;22.506;2023-04-01T13:26:59;15.80;72.30
33655;DHT22;19997;51.274;22.506;2023-04-01T13:29:36;15.70;72.90
33655;DHT22;19997;51.274;22.506;2023-04-01T13:32:23;15.70;72.60
33655;DHT22;19997;51.274;22.506;2023-04-01T13:35:12;15.70;73.10
33655;DHT22;19997;51.274;22.506;2023-04-01T13:37:54;15.70;73.10
33655;DHT22;19997;51.274;22.506;2023-04-01T13:40:33;15.70;73.60
33655;DHT22;19997;51.274;22.506;2023-04-01T13:43:12;15.70;73.80
33655;DHT22;19997;51.274;22.506;2023-04-01T13:45:55;15.70;74.20
33655;DHT22;19997;51.274;22.506;2023-04-01T13:48:33;15.70;74.60
33655;DHT22;19997;51.274;22.506;2023-04-01T13:51:25;15.60;75.70
33655;DHT22;19997;51.274;22.506;2023-04-01T13:57:21;15.30;78.30
33655;DHT22;19997;51.274;22.506;2023-04-01T14:05:50;14.80;79.20
33655;DHT22;19997;51.274;22.506;2023-04-01T14:08:29;14.70;79.90
33655;DHT22;19997;51.274;22.506;2023-04-01T14:11:10;14.70;80.40
33655;DHT22;19997;51.274;22.506;2023-04-01T14:13:47;14.70;80.90
33655;DHT22;19997;51.274;22.506;2023-04-01T14:16:55;14.70;81.00
33655;DHT22;19997;51.274;22.506;2023-04-01T14:19:36;14.60;80.80
33655;DHT22;19997;51.274;22.506;2023-04-01T14:22:13;14.60;80.80
33655;DHT22;19997;51.274;22.506;2023-04-01T14:24:57;14.60;80.90
33655;DHT22;19997;51.274;22.506;2023-04-01T14:27:50;14.70;81.30
33655;DHT22;19997;51.274;22.506;2023-04-01T14:30:34;14.60;82.00
33655;DHT22;19997;51.274;22.506;2023-04-01T14:33:11;14.60;82.40
33655;DHT22;19997;51.274;22.506;2023-04-01T14:35:44;14.60;82.50
33655;DHT22;19997;51.274;22.506;2023-04-01T14:38:35;14.60;82.80
33655;DHT22;19997;51.274;22.506;2023-04-01T14:41:20;14.70;82.90
33655;DHT22;19997;51.274;22.506;2023-04-01T14:44:14;14.80;83.20
33655;DHT22;19997;51.274;22.506;2023-04-01T14:49:41;15.00;83.30
33655;DHT22;19997;51.274;22.506;2023-04-01T14:52:13;15.20;83.50
33655;DHT22;19997;51.274;22.506;2023-04-01T14:54:44;15.30;83.40
33655;DHT22;19997;51.274;22.506;2023-04-01T14:57:16;15.40;83.50
33655;DHT22;19997;51.274;22.506;2023-04-01T14:59:51;15.40;83.60
33655;DHT22;19997;51.274;22.506;2023-04-01T15:02:42;15.40;83.80
33655;DHT22;19997;51.274;22.506;2023-04-01T15:05:16;15.30;83.70
33655;DHT22;19997;51.274;22.506;2023-04-01T15:08:09;15.30;83.70
33655;DHT22;19997;51.274;22.506;2023-04-01T15:10:53;15.20;83.90
33655;DHT22;19997;51.274;22.506;2023-04-01T15:13:40;15.20;83.90
33655;DHT22;19997;51.274;22.506;2023-04-01T15:16:16;15.10;84.10
33655;DHT22;19997;51.274;22.506;2023-04-01T15:18:53;15.10;84.20
33655;DHT22;19997;51.274;22.506;2023-04-01T15:21:38;15.10;84.50
33655;DHT22;19997;51.274;22.506;2023-04-01T15:24:11;15.00;84.60
33655;DHT22;19997;51.274;22.506;2023-04-01T15:26:59;15.00;84.90
33655;DHT22;19997;51.274;22.506;2023-04-01T15:29:54;14.90;85.10
33655;DHT22;19997;51.274;22.506;2023-04-01T15:32:37;14.90;85.30
33655;DHT22;19997;51.274;22.506;2023-04-01T15:35:21;14.90;85.30
33655;DHT22;19997;51.274;22.506;2023-04-01T15:38:12;14.90;85.60
33655;DHT22;19997;51.274;22.506;2023-04-01T15:40:46;14.80;85.80
33655;DHT22;19997;51.274;22.506;2023-04-01T15:43:27;14.70;86.10
33655;DHT22;19997;51.274;22.506;2023-04-01T15:46:20;14.60;86.50
33655;DHT22;19997;51.274;22.506;2023-04-01T15:48:58;14.50;87.20
33655;DHT22;19997;51.274;22.506;2023-04-01T15:51:47;14.40;88.40
33655;DHT22;19997;51.274;22.506;2023-04-01T15:57:20;14.00;90.10
33655;DHT22;19997;51.274;22.506;2023-04-01T16:02:48;13.60;91.50
33655;DHT22;19997;51.274;22.506;2023-04-01T16:05:34;13.50;92.20
33655;DHT22;19997;51.274;22.506;2023-04-01T16:08:17;13.30;92.90
33655;DHT22;19997;51.274;22.506;2023-04-01T16:11:03;13.20;94.20
33655;DHT22;19997;51.274;22.506;2023-04-01T16:13:46;13.10;95.10
33655;DHT22;19997;51.274;22.506;2023-04-01T16:16:23;12.90;96.30
33655;DHT22;19997;51.274;22.506;2023-04-01T16:19:11;12.80;97.60
33655;DHT22;19997;51.274;22.506;2023-04-01T16:21:45;12.70;98.80
33655;DHT22;19997;51.274;22.506;2023-04-01T16:24:20;12.60;99.80
33655;DHT22;19997;51.274;22.506;2023-04-01T16:26:54;12.50;99.90
33655;DHT22;19997;51.274;22.506;2023-04-01T16:29:32;12.40;99.90
33655;DHT22;19997;51.274;22.506;2023-04-01T16:32:17;12.30;99.90
33655;DHT22;19997;51.274;22.506;2023-04-01T16:34:56;12.30;99.90
33655;DHT22;19997;51.274;22.506;2023-04-01T16:37:32;12.30;99.90
33655;DHT22;19997;51.274;22.506;2023-04-01T16:40:12;12.20;99.90
33655;DHT22;19997;51.274;22.506;2023-04-01T16:42:47;12.20;99.90
33655;DHT22;19997;51.274;22.506;2023-04-01T16:45:32;12.10;99.90
33655;DHT22;19997;51.274;22.506;2023-04-01T16:48:09;12.10;99.90
33655;DHT22;19997;51.274;22.506;2023-04-01T16:50:48;12.10;99.90
33655;DHT22;19997;51.274;22.506;2023-04-01T16:53:21;12.00;99.90
33655;DHT22;19997;51.274;22.506;2023-04-01T16:55:55;11.90;99.90
33655;DHT22;19997;51.274;22.506;2023-04-01T16:58:27;11.80;99.90
33655;DHT22;19997;51.274;22.506;2023-04-01T17:01:04;11.80;99.90
33655;DHT22;19997;51.274;22.506;2023-04-01T17:03:34;11.70;99.90
33655;DHT22;19997;51.274;22.506;2023-04-01T17:06:12;11.60;99.90
33655;DHT22;19997;51.274;22.506;2023-04-01T17:08:54;11.60;99.90
33655;DHT22;19997;51.274;22.506;2023-04-01T17:11:25;11.60;99.90
33655;DHT22;19997;51.274;22.506;2023-04-01T17:14:03;11.60;99.90
33655;DHT22;19997;51.274;22.506;2023-04-01T17:16:50;11.60;99.90
33655;DHT22;19997;51.274;22.506;2023-04-01T17:19:34;11.60;99.90
33655;DHT22;19997;51.274;22.506;2023-04-01T17:22:15;11.60;99.90
33655;DHT22;19997;51.274;22.506;2023-04-01T17:24:55;11.60;99.90
33655;DHT22;19997;51.274;22.506;2023-04-01T17:27:35;11.60;99.90
33655;DHT22;19997;51.274;22.506;2023-04-01T17:30:28;11.70;99.90
33655;DHT22;19997;51.274;22.506;2023-04-01T17:36:06;11.70;99.90
33655;DHT22;19997;51.274;22.506;2023-04-01T17:39:00;11.70;99.90
33655;DHT22;19997;51.274;22.506;2023-04-01T17:41:36;11.70;99.90
33655;DHT22;19997;51.274;22.506;2023-04-01T17:44:24;11.70;99.90
33655;DHT22;19997;51.274;22.506;2023-04-01T17:47:01;11.70;99.90
33655;DHT22;19997;51.274;22.506;2023-04-01T17:49:37;11.70;99.90